To NAV CANADA Home Page Login to a new session Search on AWWS site Disclaimer Vers la page française équivalente Tips FAQ What's new on the site To the Forecasts and Observations / NOTAM section To "File a Flight Plan" website Publications and other links Update of the User's profile FIC Telephone Numbers My Weather Data Folder Route Weather Data Regional Weather Data Local Weather Data To the Forecasts and Observations / NOTAM section
Request Generated 09/19/2020 at 02:33:45 UTC . Weather information available at that time is displayed.

METAR/TAF

TORONTO/LESTER B. PEARSON INTL/ON    

METAR CYYZ 190200Z 34011KT 15SM SKC 08/M01 A3033 RMK SLP275=
METAR CYYZ 190100Z 34012KT 15SM SKC 09/M01 A3032 RMK SLP272=
METAR CYYZ 190000Z 34013G18KT 15SM FEW260 10/M01 A3030 RMK CI1 CI TR SLP264=

TAF CYYZ 182340Z 1900/2006 34015KT P6SM FEW060
FM190100 35010KT P6SM SKC
BECMG 1906/1908 36005KT
FM191400 07007KT P6SM FEW150
BECMG 1916/1918 14010KT
FM200000 12006KT P6SM BKN170
BECMG 2000/2002 VRB03KT
RMK NXT FCST BY 190300Z=
Your time UTC time
Weather data provided by Environment Canada and NAV CANADA